This is the latest recevied weather packets stored in our database for station/object EA2RCU-15. If no packets are shown the sender has not sent any weather packets the latest 10 day(s).
| Time | Temp. | Humidity | Pressure | Rain* | Wind** | Luminosity | Snow |
|---|---|---|---|---|---|---|---|
| 1777477804 | 18.33° C | 62% | 993 hPa | 7.87 mm | - | - | - |
| 1777477505 | 21.11° C | 51% | 990 hPa | 0 mm | - | - | - |
| 1777477204 | 21.11° C | 51% | 990 hPa | 0 mm | - | - | - |
| 1777476904 | 21.11° C | 47% | 990 hPa | 0 mm | - | - | - |
| 1777476604 | 22.22° C | 40% | 990 hPa | 0 mm | - | - | - |
| 1777476305 | 22.22° C | 37% | 990 hPa | 0 mm | - | - | - |
| 1777476004 | 22.78° C | 36% | 990 hPa | 0 mm | - | - | - |
| 1777475704 | 23.33° C | 33% | 990 hPa | 0 mm | - | - | - |
| 1777475404 | 23.89° C | 32% | 990 hPa | 0 mm | - | - | - |
| 1777475104 | 23.89° C | 31% | 990 hPa | 0 mm | - | - | - |
| 1777474804 | 25° C | 31% | 990 hPa | 0 mm | - | - | - |
| 1777474504 | 25.56° C | 30% | 990 hPa | 0 mm | - | - | - |
| 1777474204 | 25.56° C | 30% | 990 hPa | 0 mm | - | - | - |
| 1777473905 | 25.56° C | 31% | 990 hPa | 0 mm | - | - | - |
| 1777473604 | 26.11° C | 31% | 990 hPa | 0 mm | - | - | - |
| 1777473304 | 26.11° C | 30% | 990 hPa | 0 mm | - | - | - |
| 1777473004 | 26.11° C | 31% | 990 hPa | 0 mm | - | - | - |
| 1777472704 | 25.56° C | 31% | 990 hPa | 0 mm | - | - | - |
| 1777472405 | 25.56° C | 32% | 990 hPa | 0 mm | - | - | - |
| 1777472104 | 25° C | 33% | 990 hPa | 0 mm | - | - | - |
| 1777471804 | 24.44° C | 35% | 990 hPa | 0 mm | - | - | - |
| 1777471504 | 23.89° C | 36% | 990 hPa | 0 mm | - | - | - |
| 1777471204 | 23.89° C | 37% | 990 hPa | 0 mm | - | - | - |
| 1777470905 | 23.89° C | 38% | 990 hPa | 0 mm | - | - | - |
| 1777470604 | 23.33° C | 38% | 990 hPa | 0 mm | - | - | - |
* Rain latest hour (hover to see other rain measurements)
** Current wind speed in m/s (hover to see current wind gust speed)